KFRM

Details ICAO KFRM
Name FAIRMONT MUNI
Region United States
Timezone America/Chicago (UTC-5.0)
Plans Departing 0
Arriving 2
Stats Elevation 1,162 ft / 354 m (AMSL)
Location 43.643898° -94.414935°
Runways 2
Magnetic Variation 1.224° E
Sunrise 2018-05-25 10:44:55 UTC / 2018-05-25 05:44:55 Local
Sunset 2018-05-26 01:47:12 UTC / 2018-05-25 20:47:12 Local
Advertisement - Login to hide

Runways

ID Width Length Bearing (true) Bearing (mag) Surface Threshold Offset Overrun Length
02 75 ft / 23 m 3,301 ft / 1,006 m 27.97° 26.75° Asphalt 0 ft / 0 m 0 ft / 0 m
13 100 ft / 30 m 5,500 ft / 1,677 m 134.21° 132.99° Asphalt 0 ft / 0 m 0 ft / 0 m
20 75 ft / 23 m 3,301 ft / 1,006 m 207.98° 206.76° Asphalt 0 ft / 0 m 0 ft / 0 m
31 100 ft / 30 m 5,500 ft / 1,677 m 314.22° 313.00° Asphalt 0 ft / 0 m 0 ft / 0 m

Map

Weather


0- 5 10 15 20 25 30 35+ Temperature / ° C

Clouds and Precipitation
Forecast for 2018-05-25 18:00 UTC. Updated 20 minutes ago

Ground ~20,000 ft ~40,000 ft Winds

METAR

KFRM 251656Z AUTO VRB04KT 10SM CLR 28/19 A2981 RMK AO2 SLP089 T02780189

TAF

Not found

Frequencies

Unicom 122.80 MHz CTAF/UNICOM
Warning: Do not use this data for real-world aviation or navigation. No guarantee of current accuracy is given.